ADDS TAF Board (Experimental) INFO Settings

IDs: Format: Expanded Condensed

KMIA - Miami Intl, FL, US

Issued at 0538 UTC 06 Mar 2015
Updated at: 0858 UTC 06 Mar 2015
Time0853Z 06/09Z 06/10Z 06/11Z 06/12Z 06/13Z 06/14Z 06/15Z 06/16Z 06/17Z 06/18Z 06/19Z 06/20Z 06/21Z
Type OBS PRVL PRVL PRVL PRVL PRVL PRVL PRVL PRVL PRVL PRVL PRVL PRVL PRVL
VIS 10 >6 >6 >6 >6 >6 >6 >6 >6 >6 >6 >6 >6 >6
CIG 65 -- -- -- -- -- -- -- -- -- -- -- -- --
Cover BKN SCT SCT SCT SCT SCT SCT SCT SCT SCT SCT SCT SCT SCT
FltCat VFR VFR VFR VFR VFR VFR VFR VFR VFR VFR VFR VFR VFR VFR
WX -- -- -- -- -- -- -- -- -- -- -- -- -- --
WDir VRB VRB VRB VRB VRB VRB VRB VRB 110 110 110 110 110 110
WSpd 0 3 3 3 3 3 3 3 8 8 8 8 8 8
WGst -- -- -- -- -- -- -- -- -- -- -- -- -- --
R08/26
XWnd VRB VRB VRB VRB VRB VRB VRB VRB -3 -3 -3 -3 -3 -3
HWnd VRB VRB VRB VRB VRB VRB VRB VRB 7 7 7 7 7 7
R09/27
XWnd VRB VRB VRB VRB VRB VRB VRB VRB -3 -3 -3 -3 -3 -3
HWnd VRB VRB VRB VRB VRB VRB VRB VRB 7 7 7 7 7 7
R12/30
XWnd VRB VRB VRB VRB VRB VRB VRB VRB 1 1 1 1 1 1
HWnd VRB VRB VRB VRB VRB VRB VRB VRB 8 8 8 8 8 8

NOTE: TEMPO conditions in [brackets]. Keep in mind TEMPO conditions might be better (lower impact) than prevailing conditions.

Raw TAF
KMIA 060538Z 0606/0706 VRB03KT P6SM SCT045
  FM061600 11008KT P6SM SCT045
  FM062300 01006KT P6SM SCT035


Raw METAR
KMIA 060853Z 00000KT 10SM BKN065 23/21 A3013 RMK AO2 SLP202 T02280206 55007
KMIA 060753Z 00000KT 10SM FEW040 FEW070 22/20 A3013 RMK AO2 SLP202 98606 T02170200
KMIA 060653Z COR 00000KT 10SM FEW040 FEW070 22/21 A3013 RMK AO2 SLP204 T02220206
KMIA 060553Z 00000KT 10SM CLR 23/21 A3015 RMK AO2 SLP209 T02280206 10250 20228 58003

METAR Board
Radar Display
Forecast Discussion

TAF Board Legend

Potential Impact
Threat None Slight Moderate High
Visibility (sm) ≥5.1 5.1>X≥3 3>X≥1 <1
Ceiling (100 ft) ≥30.1 30.1>X≥10 10>X≥5 <5
Wind Speed (kt) <10 10≤X<20 20≤X<30 ≥30
Wind Gust (kt) <15 15≤X<25 25≤X<35 ≥35
Weather No Wx Reported VCTS,-TS,-FZRA,SN TS,FZRA +TS,+FZRA,+SN